sensor_id;sensor_type;location;lat;lon;timestamp;P1;durP1;ratioP1;P2;durP2;ratioP2
56269;SDS011;42176;43.240;27.880;2023-05-10T00:01:03;2.60;;;2.40;;
56269;SDS011;42176;43.240;27.880;2023-05-10T00:03:29;4.10;;;3.13;;
56269;SDS011;42176;43.240;27.880;2023-05-10T00:05:54;5.13;;;3.08;;
56269;SDS011;42176;43.240;27.880;2023-05-10T00:08:20;2.97;;;2.65;;
56269;SDS011;42176;43.240;27.880;2023-05-10T00:10:45;5.15;;;3.67;;
56269;SDS011;42176;43.240;27.880;2023-05-10T00:13:11;6.05;;;3.70;;
56269;SDS011;42176;43.240;27.880;2023-05-10T00:15:36;6.13;;;2.45;;
56269;SDS011;42176;43.240;27.880;2023-05-10T00:18:01;5.32;;;3.45;;
56269;SDS011;42176;43.240;27.880;2023-05-10T00:20:27;5.18;;;3.15;;
56269;SDS011;42176;43.240;27.880;2023-05-10T00:22:52;5.85;;;3.70;;
56269;SDS011;42176;43.240;27.880;2023-05-10T00:25:18;12.30;;;3.97;;
56269;SDS011;42176;43.240;27.880;2023-05-10T00:27:43;2.67;;;2.47;;
56269;SDS011;42176;43.240;27.880;2023-05-10T00:30:09;5.85;;;2.45;;
56269;SDS011;42176;43.240;27.880;2023-05-10T00:32:34;5.10;;;3.20;;
56269;SDS011;42176;43.240;27.880;2023-05-10T00:35:01;6.85;;;4.22;;
56269;SDS011;42176;43.240;27.880;2023-05-10T00:37:27;6.40;;;4.05;;
56269;SDS011;42176;43.240;27.880;2023-05-10T00:39:52;5.15;;;3.97;;
56269;SDS011;42176;43.240;27.880;2023-05-10T00:42:18;4.47;;;3.17;;
56269;SDS011;42176;43.240;27.880;2023-05-10T00:44:43;4.80;;;3.30;;
56269;SDS011;42176;43.240;27.880;2023-05-10T00:47:09;7.97;;;3.80;;
56269;SDS011;42176;43.240;27.880;2023-05-10T00:49:35;3.85;;;2.72;;
56269;SDS011;42176;43.240;27.880;2023-05-10T00:52:01;8.50;;;4.28;;
56269;SDS011;42176;43.240;27.880;2023-05-10T00:54:28;8.48;;;3.50;;
56269;SDS011;42176;43.240;27.880;2023-05-10T00:56:53;5.25;;;3.17;;
56269;SDS011;42176;43.240;27.880;2023-05-10T00:59:19;5.30;;;3.50;;
56269;SDS011;42176;43.240;27.880;2023-05-10T01:01:45;11.23;;;4.45;;
56269;SDS011;42176;43.240;27.880;2023-05-10T01:04:11;6.25;;;3.60;;
56269;SDS011;42176;43.240;27.880;2023-05-10T01:06:38;4.50;;;3.50;;
56269;SDS011;42176;43.240;27.880;2023-05-10T01:09:07;6.22;;;3.42;;
56269;SDS011;42176;43.240;27.880;2023-05-10T01:11:35;5.95;;;3.17;;
56269;SDS011;42176;43.240;27.880;2023-05-10T01:14:03;7.30;;;3.95;;
56269;SDS011;42176;43.240;27.880;2023-05-10T01:16:32;3.67;;;2.63;;
56269;SDS011;42176;43.240;27.880;2023-05-10T01:19:01;3.53;;;3.22;;
56269;SDS011;42176;43.240;27.880;2023-05-10T01:24:51;8.90;;;4.10;;
56269;SDS011;42176;43.240;27.880;2023-05-10T01:27:17;5.60;;;2.97;;
56269;SDS011;42176;43.240;27.880;2023-05-10T01:35:45;5.13;;;3.50;;
56269;SDS011;42176;43.240;27.880;2023-05-10T01:38:17;8.38;;;4.53;;
56269;SDS011;42176;43.240;27.880;2023-05-10T01:43:21;3.72;;;3.13;;
56269;SDS011;42176;43.240;27.880;2023-05-10T01:48:29;9.68;;;4.78;;
56269;SDS011;42176;43.240;27.880;2023-05-10T01:50:56;9.48;;;4.30;;
56269;SDS011;42176;43.240;27.880;2023-05-10T01:53:23;6.97;;;4.28;;
56269;SDS011;42176;43.240;27.880;2023-05-10T01:55:49;7.68;;;3.90;;
56269;SDS011;42176;43.240;27.880;2023-05-10T01:58:28;3.90;;;2.40;;
56269;SDS011;42176;43.240;27.880;2023-05-10T02:00:56;7.28;;;4.35;;
56269;SDS011;42176;43.240;27.880;2023-05-10T02:03:25;7.03;;;4.72;;
56269;SDS011;42176;43.240;27.880;2023-05-10T02:05:53;8.50;;;4.97;;
56269;SDS011;42176;43.240;27.880;2023-05-10T02:08:20;6.57;;;4.53;;
56269;SDS011;42176;43.240;27.880;2023-05-10T02:10:47;5.40;;;4.15;;
56269;SDS011;42176;43.240;27.880;2023-05-10T02:13:16;9.13;;;5.60;;
56269;SDS011;42176;43.240;27.880;2023-05-10T02:15:43;9.80;;;5.72;;
56269;SDS011;42176;43.240;27.880;2023-05-10T02:18:11;7.47;;;5.38;;
56269;SDS011;42176;43.240;27.880;2023-05-10T02:20:38;10.00;;;6.35;;
56269;SDS011;42176;43.240;27.880;2023-05-10T02:23:04;6.25;;;3.65;;
56269;SDS011;42176;43.240;27.880;2023-05-10T02:25:31;11.32;;;6.07;;
56269;SDS011;42176;43.240;27.880;2023-05-10T02:27:57;7.30;;;4.80;;
56269;SDS011;42176;43.240;27.880;2023-05-10T02:30:26;9.93;;;5.47;;
56269;SDS011;42176;43.240;27.880;2023-05-10T02:32:53;6.43;;;4.13;;
56269;SDS011;42176;43.240;27.880;2023-05-10T02:35:20;7.70;;;5.05;;
56269;SDS011;42176;43.240;27.880;2023-05-10T02:37:48;7.90;;;4.72;;
56269;SDS011;42176;43.240;27.880;2023-05-10T02:40:15;11.50;;;6.03;;
56269;SDS011;42176;43.240;27.880;2023-05-10T02:42:43;9.52;;;5.88;;
56269;SDS011;42176;43.240;27.880;2023-05-10T02:45:11;11.68;;;7.70;;
56269;SDS011;42176;43.240;27.880;2023-05-10T02:47:40;9.88;;;5.28;;
56269;SDS011;42176;43.240;27.880;2023-05-10T02:50:06;8.32;;;5.07;;
56269;SDS011;42176;43.240;27.880;2023-05-10T02:52:50;7.50;;;4.38;;
56269;SDS011;42176;43.240;27.880;2023-05-10T02:55:20;9.27;;;6.43;;
56269;SDS011;42176;43.240;27.880;2023-05-10T02:57:54;8.50;;;4.25;;
56269;SDS011;42176;43.240;27.880;2023-05-10T03:00:24;11.93;;;5.30;;
56269;SDS011;42176;43.240;27.880;2023-05-10T03:02:50;11.07;;;6.20;;
56269;SDS011;42176;43.240;27.880;2023-05-10T03:05:15;6.45;;;4.35;;
56269;SDS011;42176;43.240;27.880;2023-05-10T03:07:41;11.27;;;7.55;;
56269;SDS011;42176;43.240;27.880;2023-05-10T03:10:07;11.20;;;6.38;;
56269;SDS011;42176;43.240;27.880;2023-05-10T03:17:54;5.47;;;3.88;;
56269;SDS011;42176;43.240;27.880;2023-05-10T03:20:24;5.75;;;4.88;;
56269;SDS011;42176;43.240;27.880;2023-05-10T03:23:00;9.63;;;4.97;;
56269;SDS011;42176;43.240;27.880;2023-05-10T03:25:31;9.07;;;5.70;;
56269;SDS011;42176;43.240;27.880;2023-05-10T03:27:57;5.35;;;4.03;;
56269;SDS011;42176;43.240;27.880;2023-05-10T03:30:24;8.13;;;5.10;;
56269;SDS011;42176;43.240;27.880;2023-05-10T03:32:50;12.70;;;6.75;;
56269;SDS011;42176;43.240;27.880;2023-05-10T03:35:16;9.50;;;6.07;;
56269;SDS011;42176;43.240;27.880;2023-05-10T03:37:41;9.02;;;6.10;;
56269;SDS011;42176;43.240;27.880;2023-05-10T03:40:07;10.77;;;6.60;;
56269;SDS011;42176;43.240;27.880;2023-05-10T03:42:33;10.95;;;5.60;;
56269;SDS011;42176;43.240;27.880;2023-05-10T03:44:58;8.30;;;5.13;;
56269;SDS011;42176;43.240;27.880;2023-05-10T03:47:24;9.15;;;5.18;;
56269;SDS011;42176;43.240;27.880;2023-05-10T03:49:49;7.28;;;4.80;;
56269;SDS011;42176;43.240;27.880;2023-05-10T03:52:14;8.65;;;5.38;;
56269;SDS011;42176;43.240;27.880;2023-05-10T03:54:40;6.15;;;4.65;;
56269;SDS011;42176;43.240;27.880;2023-05-10T03:57:05;7.18;;;5.13;;
56269;SDS011;42176;43.240;27.880;2023-05-10T03:59:31;14.45;;;5.28;;
56269;SDS011;42176;43.240;27.880;2023-05-10T04:01:56;5.85;;;4.40;;
56269;SDS011;42176;43.240;27.880;2023-05-10T04:04:22;7.05;;;4.20;;
56269;SDS011;42176;43.240;27.880;2023-05-10T04:06:48;11.77;;;5.00;;
56269;SDS011;42176;43.240;27.880;2023-05-10T04:09:14;6.03;;;4.03;;
56269;SDS011;42176;43.240;27.880;2023-05-10T04:11:40;8.23;;;4.30;;
56269;SDS011;42176;43.240;27.880;2023-05-10T04:14:05;6.53;;;4.07;;
56269;SDS011;42176;43.240;27.880;2023-05-10T04:16:31;8.35;;;4.30;;
56269;SDS011;42176;43.240;27.880;2023-05-10T04:18:56;6.97;;;4.10;;
56269;SDS011;42176;43.240;27.880;2023-05-10T04:21:22;5.20;;;4.22;;
56269;SDS011;42176;43.240;27.880;2023-05-10T04:23:47;9.60;;;3.65;;
56269;SDS011;42176;43.240;27.880;2023-05-10T04:26:13;7.47;;;4.00;;
56269;SDS011;42176;43.240;27.880;2023-05-10T04:28:38;5.97;;;3.50;;
56269;SDS011;42176;43.240;27.880;2023-05-10T04:31:08;5.72;;;4.00;;
56269;SDS011;42176;43.240;27.880;2023-05-10T04:33:34;5.90;;;3.42;;
56269;SDS011;42176;43.240;27.880;2023-05-10T04:36:00;8.05;;;3.65;;
56269;SDS011;42176;43.240;27.880;2023-05-10T04:38:26;5.85;;;4.22;;
56269;SDS011;42176;43.240;27.880;2023-05-10T04:40:52;10.32;;;4.50;;
56269;SDS011;42176;43.240;27.880;2023-05-10T04:43:17;6.13;;;3.63;;
56269;SDS011;42176;43.240;27.880;2023-05-10T04:45:43;4.95;;;3.45;;
56269;SDS011;42176;43.240;27.880;2023-05-10T04:48:08;7.30;;;2.97;;
56269;SDS011;42176;43.240;27.880;2023-05-10T04:50:34;7.18;;;3.33;;
56269;SDS011;42176;43.240;27.880;2023-05-10T04:53:02;3.85;;;2.80;;
56269;SDS011;42176;43.240;27.880;2023-05-10T04:55:27;4.82;;;3.17;;
56269;SDS011;42176;43.240;27.880;2023-05-10T04:57:53;5.18;;;3.05;;
56269;SDS011;42176;43.240;27.880;2023-05-10T05:00:21;5.35;;;2.60;;
56269;SDS011;42176;43.240;27.880;2023-05-10T05:02:47;5.93;;;3.15;;
56269;SDS011;42176;43.240;27.880;2023-05-10T05:05:12;5.88;;;3.03;;
56269;SDS011;42176;43.240;27.880;2023-05-10T05:07:38;6.00;;;2.72;;
56269;SDS011;42176;43.240;27.880;2023-05-10T05:10:08;11.65;;;2.20;;
56269;SDS011;42176;43.240;27.880;2023-05-10T05:12:34;5.50;;;2.55;;
56269;SDS011;42176;43.240;27.880;2023-05-10T05:15:00;3.28;;;1.90;;
56269;SDS011;42176;43.240;27.880;2023-05-10T05:17:26;3.45;;;2.42;;
56269;SDS011;42176;43.240;27.880;2023-05-10T05:19:51;4.40;;;2.13;;
56269;SDS011;42176;43.240;27.880;2023-05-10T05:22:17;3.42;;;1.88;;
56269;SDS011;42176;43.240;27.880;2023-05-10T05:24:44;9.85;;;2.50;;
56269;SDS011;42176;43.240;27.880;2023-05-10T05:27:10;2.15;;;1.90;;
56269;SDS011;42176;43.240;27.880;2023-05-10T05:29:35;2.92;;;2.00;;
56269;SDS011;42176;43.240;27.880;2023-05-10T05:32:01;2.65;;;1.75;;
56269;SDS011;42176;43.240;27.880;2023-05-10T05:34:26;5.40;;;2.10;;
56269;SDS011;42176;43.240;27.880;2023-05-10T05:36:52;3.83;;;2.33;;
56269;SDS011;42176;43.240;27.880;2023-05-10T05:39:17;2.20;;;1.83;;
56269;SDS011;42176;43.240;27.880;2023-05-10T05:41:42;3.08;;;2.58;;
56269;SDS011;42176;43.240;27.880;2023-05-10T05:44:08;2.42;;;1.85;;
56269;SDS011;42176;43.240;27.880;2023-05-10T05:46:34;5.57;;;3.17;;
56269;SDS011;42176;43.240;27.880;2023-05-10T05:48:59;3.30;;;1.95;;
56269;SDS011;42176;43.240;27.880;2023-05-10T05:51:25;4.32;;;1.95;;
56269;SDS011;42176;43.240;27.880;2023-05-10T05:53:50;8.50;;;3.45;;
56269;SDS011;42176;43.240;27.880;2023-05-10T05:56:16;12.60;;;6.13;;
56269;SDS011;42176;43.240;27.880;2023-05-10T05:58:48;11.60;;;5.55;;
56269;SDS011;42176;43.240;27.880;2023-05-10T06:01:14;7.07;;;4.25;;
56269;SDS011;42176;43.240;27.880;2023-05-10T06:03:40;10.73;;;4.20;;
56269;SDS011;42176;43.240;27.880;2023-05-10T06:06:05;2.58;;;2.03;;
56269;SDS011;42176;43.240;27.880;2023-05-10T06:08:30;2.92;;;1.77;;
56269;SDS011;42176;43.240;27.880;2023-05-10T06:10:56;2.28;;;2.08;;
56269;SDS011;42176;43.240;27.880;2023-05-10T06:13:21;3.88;;;2.58;;
56269;SDS011;42176;43.240;27.880;2023-05-10T06:15:47;3.50;;;2.30;;
56269;SDS011;42176;43.240;27.880;2023-05-10T06:18:12;3.22;;;2.20;;
56269;SDS011;42176;43.240;27.880;2023-05-10T06:20:37;4.68;;;2.53;;
56269;SDS011;42176;43.240;27.880;2023-05-10T06:23:03;5.25;;;1.92;;
56269;SDS011;42176;43.240;27.880;2023-05-10T06:25:28;1.52;;;1.42;;
56269;SDS011;42176;43.240;27.880;2023-05-10T06:27:54;4.13;;;2.33;;
56269;SDS011;42176;43.240;27.880;2023-05-10T06:30:23;2.15;;;1.95;;
56269;SDS011;42176;43.240;27.880;2023-05-10T06:32:52;3.58;;;1.90;;
56269;SDS011;42176;43.240;27.880;2023-05-10T06:35:18;4.25;;;2.33;;
56269;SDS011;42176;43.240;27.880;2023-05-10T06:37:44;3.15;;;1.77;;
56269;SDS011;42176;43.240;27.880;2023-05-10T06:40:09;7.40;;;2.75;;
56269;SDS011;42176;43.240;27.880;2023-05-10T06:42:35;4.57;;;2.15;;
56269;SDS011;42176;43.240;27.880;2023-05-10T06:45:00;3.55;;;2.15;;
56269;SDS011;42176;43.240;27.880;2023-05-10T06:47:26;2.70;;;2.50;;
56269;SDS011;42176;43.240;27.880;2023-05-10T06:49:51;4.00;;;1.50;;
56269;SDS011;42176;43.240;27.880;2023-05-10T06:52:17;2.42;;;1.65;;
56269;SDS011;42176;43.240;27.880;2023-05-10T06:54:42;12.02;;;1.90;;
56269;SDS011;42176;43.240;27.880;2023-05-10T06:57:07;3.17;;;2.03;;
56269;SDS011;42176;43.240;27.880;2023-05-10T06:59:36;1.50;;;1.40;;
56269;SDS011;42176;43.240;27.880;2023-05-10T07:02:01;2.35;;;1.73;;
56269;SDS011;42176;43.240;27.880;2023-05-10T07:04:27;1.80;;;1.70;;
56269;SDS011;42176;43.240;27.880;2023-05-10T07:06:52;2.75;;;2.00;;
56269;SDS011;42176;43.240;27.880;2023-05-10T07:09:18;3.70;;;1.73;;
56269;SDS011;42176;43.240;27.880;2023-05-10T07:11:43;3.00;;;1.42;;
56269;SDS011;42176;43.240;27.880;2023-05-10T07:14:09;2.38;;;1.77;;
56269;SDS011;42176;43.240;27.880;2023-05-10T07:16:34;4.70;;;1.70;;
56269;SDS011;42176;43.240;27.880;2023-05-10T07:19:00;2.83;;;2.10;;
56269;SDS011;42176;43.240;27.880;2023-05-10T07:21:25;4.88;;;1.90;;
56269;SDS011;42176;43.240;27.880;2023-05-10T07:23:53;2.97;;;1.92;;
56269;SDS011;42176;43.240;27.880;2023-05-10T07:26:19;1.83;;;1.42;;
56269;SDS011;42176;43.240;27.880;2023-05-10T07:28:45;9.13;;;3.38;;
56269;SDS011;42176;43.240;27.880;2023-05-10T07:31:11;4.32;;;1.92;;
56269;SDS011;42176;43.240;27.880;2023-05-10T07:33:37;3.10;;;1.77;;
56269;SDS011;42176;43.240;27.880;2023-05-10T07:36:02;6.90;;;1.88;;
56269;SDS011;42176;43.240;27.880;2023-05-10T07:38:28;4.13;;;1.88;;
56269;SDS011;42176;43.240;27.880;2023-05-10T07:40:53;6.00;;;1.63;;
56269;SDS011;42176;43.240;27.880;2023-05-10T07:43:19;2.13;;;1.92;;
56269;SDS011;42176;43.240;27.880;2023-05-10T07:45:44;2.17;;;1.98;;
56269;SDS011;42176;43.240;27.880;2023-05-10T07:48:10;5.63;;;1.80;;
56269;SDS011;42176;43.240;27.880;2023-05-10T07:50:35;2.45;;;1.95;;
56269;SDS011;42176;43.240;27.880;2023-05-10T07:53:00;2.78;;;2.35;;
56269;SDS011;42176;43.240;27.880;2023-05-10T07:55:26;2.55;;;2.00;;
56269;SDS011;42176;43.240;27.880;2023-05-10T07:57:51;10.15;;;1.50;;
56269;SDS011;42176;43.240;27.880;2023-05-10T08:00:17;4.35;;;2.15;;
56269;SDS011;42176;43.240;27.880;2023-05-10T08:02:44;5.95;;;1.85;;
56269;SDS011;42176;43.240;27.880;2023-05-10T08:05:10;2.47;;;2.05;;
56269;SDS011;42176;43.240;27.880;2023-05-10T08:07:35;3.88;;;2.40;;
56269;SDS011;42176;43.240;27.880;2023-05-10T08:10:01;2.95;;;1.50;;
56269;SDS011;42176;43.240;27.880;2023-05-10T08:12:27;6.10;;;1.45;;
56269;SDS011;42176;43.240;27.880;2023-05-10T08:14:53;3.45;;;2.75;;
56269;SDS011;42176;43.240;27.880;2023-05-10T08:17:18;3.20;;;2.88;;
56269;SDS011;42176;43.240;27.880;2023-05-10T08:19:44;2.58;;;1.65;;
56269;SDS011;42176;43.240;27.880;2023-05-10T08:22:12;1.60;;;1.08;;
56269;SDS011;42176;43.240;27.880;2023-05-10T08:24:37;4.47;;;2.00;;
56269;SDS011;42176;43.240;27.880;2023-05-10T08:27:07;2.10;;;1.73;;
56269;SDS011;42176;43.240;27.880;2023-05-10T08:29:33;8.20;;;1.90;;
56269;SDS011;42176;43.240;27.880;2023-05-10T08:32:02;4.05;;;1.75;;
56269;SDS011;42176;43.240;27.880;2023-05-10T08:34:30;5.55;;;2.30;;
56269;SDS011;42176;43.240;27.880;2023-05-10T08:36:56;2.30;;;1.85;;
56269;SDS011;42176;43.240;27.880;2023-05-10T08:39:21;3.25;;;2.17;;
56269;SDS011;42176;43.240;27.880;2023-05-10T08:41:48;3.78;;;2.55;;
56269;SDS011;42176;43.240;27.880;2023-05-10T08:44:16;3.42;;;2.40;;
56269;SDS011;42176;43.240;27.880;2023-05-10T08:46:44;2.88;;;1.98;;
56269;SDS011;42176;43.240;27.880;2023-05-10T08:49:13;4.03;;;2.13;;
56269;SDS011;42176;43.240;27.880;2023-05-10T08:51:43;2.50;;;1.80;;
56269;SDS011;42176;43.240;27.880;2023-05-10T08:54:12;2.55;;;2.35;;
56269;SDS011;42176;43.240;27.880;2023-05-10T08:56:38;2.65;;;1.92;;
56269;SDS011;42176;43.240;27.880;2023-05-10T08:59:04;4.68;;;2.00;;
56269;SDS011;42176;43.240;27.880;2023-05-10T09:01:30;5.05;;;3.05;;
56269;SDS011;42176;43.240;27.880;2023-05-10T09:03:57;3.00;;;2.25;;
56269;SDS011;42176;43.240;27.880;2023-05-10T09:06:23;3.55;;;2.65;;
56269;SDS011;42176;43.240;27.880;2023-05-10T09:08:49;4.45;;;2.22;;
56269;SDS011;42176;43.240;27.880;2023-05-10T09:11:15;2.33;;;2.13;;
56269;SDS011;42176;43.240;27.880;2023-05-10T09:13:42;4.88;;;1.85;;
56269;SDS011;42176;43.240;27.880;2023-05-10T09:16:08;1.65;;;1.48;;
56269;SDS011;42176;43.240;27.880;2023-05-10T09:18:34;3.17;;;2.15;;
56269;SDS011;42176;43.240;27.880;2023-05-10T09:21:00;2.05;;;1.85;;
56269;SDS011;42176;43.240;27.880;2023-05-10T09:23:25;2.15;;;1.98;;
56269;SDS011;42176;43.240;27.880;2023-05-10T09:26:06;4.87;;;2.20;;
56269;SDS011;42176;43.240;27.880;2023-05-10T09:28:33;4.65;;;2.05;;
56269;SDS011;42176;43.240;27.880;2023-05-10T09:30:59;3.67;;;1.90;;
56269;SDS011;42176;43.240;27.880;2023-05-10T09:33:24;4.32;;;2.38;;
56269;SDS011;42176;43.240;27.880;2023-05-10T09:35:51;3.10;;;2.03;;
56269;SDS011;42176;43.240;27.880;2023-05-10T09:38:17;6.05;;;2.50;;
56269;SDS011;42176;43.240;27.880;2023-05-10T09:40:43;4.63;;;2.55;;
56269;SDS011;42176;43.240;27.880;2023-05-10T09:43:19;3.78;;;2.25;;
56269;SDS011;42176;43.240;27.880;2023-05-10T09:45:45;3.08;;;1.85;;
56269;SDS011;42176;43.240;27.880;2023-05-10T09:48:14;6.47;;;2.42;;
56269;SDS011;42176;43.240;27.880;2023-05-10T09:50:39;2.28;;;1.80;;
56269;SDS011;42176;43.240;27.880;2023-05-10T09:53:05;3.17;;;2.20;;
56269;SDS011;42176;43.240;27.880;2023-05-10T09:55:39;2.47;;;2.28;;
56269;SDS011;42176;43.240;27.880;2023-05-10T09:58:06;2.03;;;1.90;;
56269;SDS011;42176;43.240;27.880;2023-05-10T10:00:36;3.95;;;2.30;;
56269;SDS011;42176;43.240;27.880;2023-05-10T10:03:03;5.05;;;2.45;;
56269;SDS011;42176;43.240;27.880;2023-05-10T10:05:29;3.33;;;2.10;;
56269;SDS011;42176;43.240;27.880;2023-05-10T10:07:55;3.47;;;2.05;;
56269;SDS011;42176;43.240;27.880;2023-05-10T10:10:22;4.43;;;2.47;;
56269;SDS011;42176;43.240;27.880;2023-05-10T10:12:48;3.92;;;2.70;;
56269;SDS011;42176;43.240;27.880;2023-05-10T10:15:14;4.95;;;2.33;;
56269;SDS011;42176;43.240;27.880;2023-05-10T10:17:39;7.75;;;2.50;;
56269;SDS011;42176;43.240;27.880;2023-05-10T10:20:06;5.45;;;3.13;;
56269;SDS011;42176;43.240;27.880;2023-05-10T10:22:33;2.38;;;2.10;;
56269;SDS011;42176;43.240;27.880;2023-05-10T10:24:59;3.38;;;2.40;;
56269;SDS011;42176;43.240;27.880;2023-05-10T10:27:28;3.40;;;2.28;;
56269;SDS011;42176;43.240;27.880;2023-05-10T10:35:55;4.10;;;1.85;;
56269;SDS011;42176;43.240;27.880;2023-05-10T10:38:23;2.42;;;2.05;;
56269;SDS011;42176;43.240;27.880;2023-05-10T10:41:01;3.33;;;2.25;;
56269;SDS011;42176;43.240;27.880;2023-05-10T10:43:34;9.35;;;3.00;;
56269;SDS011;42176;43.240;27.880;2023-05-10T10:46:20;4.20;;;2.47;;
56269;SDS011;42176;43.240;27.880;2023-05-10T10:48:50;2.20;;;2.03;;
56269;SDS011;42176;43.240;27.880;2023-05-10T10:51:36;3.40;;;2.00;;
56269;SDS011;42176;43.240;27.880;2023-05-10T10:54:11;3.50;;;2.25;;
56269;SDS011;42176;43.240;27.880;2023-05-10T10:56:37;1.67;;;1.58;;
56269;SDS011;42176;43.240;27.880;2023-05-10T10:59:03;4.30;;;1.70;;
56269;SDS011;42176;43.240;27.880;2023-05-10T11:01:34;5.15;;;1.58;;
56269;SDS011;42176;43.240;27.880;2023-05-10T11:06:32;1.67;;;1.58;;
56269;SDS011;42176;43.240;27.880;2023-05-10T11:08:58;1.55;;;1.45;;
56269;SDS011;42176;43.240;27.880;2023-05-10T11:11:30;9.07;;;1.60;;
56269;SDS011;42176;43.240;27.880;2023-05-10T11:13:56;3.50;;;1.52;;
56269;SDS011;42176;43.240;27.880;2023-05-10T11:16:28;2.55;;;0.82;;
56269;SDS011;42176;43.240;27.880;2023-05-10T11:19:11;3.00;;;1.95;;
56269;SDS011;42176;43.240;27.880;2023-05-10T11:21:45;1.70;;;1.50;;
56269;SDS011;42176;43.240;27.880;2023-05-10T11:24:18;1.48;;;1.35;;
56269;SDS011;42176;43.240;27.880;2023-05-10T11:26:45;3.25;;;2.00;;
56269;SDS011;42176;43.240;27.880;2023-05-10T11:29:14;4.50;;;2.17;;
56269;SDS011;42176;43.240;27.880;2023-05-10T11:31:44;4.07;;;1.85;;
56269;SDS011;42176;43.240;27.880;2023-05-10T11:34:26;7.75;;;2.63;;
56269;SDS011;42176;43.240;27.880;2023-05-10T11:36:55;2.97;;;2.00;;
56269;SDS011;42176;43.240;27.880;2023-05-10T11:39:21;3.50;;;1.95;;
56269;SDS011;42176;43.240;27.880;2023-05-10T11:41:49;4.88;;;2.38;;
56269;SDS011;42176;43.240;27.880;2023-05-10T11:44:15;6.28;;;2.70;;
56269;SDS011;42176;43.240;27.880;2023-05-10T11:46:41;5.20;;;2.35;;
56269;SDS011;42176;43.240;27.880;2023-05-10T11:49:06;2.20;;;2.05;;
56269;SDS011;42176;43.240;27.880;2023-05-10T11:51:33;9.57;;;1.98;;
56269;SDS011;42176;43.240;27.880;2023-05-10T11:54:07;1.85;;;1.70;;
56269;SDS011;42176;43.240;27.880;2023-05-10T11:56:34;7.13;;;2.45;;
56269;SDS011;42176;43.240;27.880;2023-05-10T11:59:00;2.25;;;2.15;;
56269;SDS011;42176;43.240;27.880;2023-05-10T12:01:27;3.78;;;2.53;;
56269;SDS011;42176;43.240;27.880;2023-05-10T12:03:54;5.63;;;2.13;;
56269;SDS011;42176;43.240;27.880;2023-05-10T12:06:29;2.65;;;2.13;;
56269;SDS011;42176;43.240;27.880;2023-05-10T12:08:57;6.97;;;2.22;;
56269;SDS011;42176;43.240;27.880;2023-05-10T12:11:26;5.75;;;1.95;;
56269;SDS011;42176;43.240;27.880;2023-05-10T12:13:53;6.80;;;2.00;;
56269;SDS011;42176;43.240;27.880;2023-05-10T12:16:20;4.65;;;2.53;;
56269;SDS011;42176;43.240;27.880;2023-05-10T12:18:51;5.25;;;2.53;;
56269;SDS011;42176;43.240;27.880;2023-05-10T12:21:18;1.80;;;1.58;;
56269;SDS011;42176;43.240;27.880;2023-05-10T12:23:45;5.55;;;2.63;;
56269;SDS011;42176;43.240;27.880;2023-05-10T12:26:12;2.13;;;1.92;;
56269;SDS011;42176;43.240;27.880;2023-05-10T12:28:38;2.70;;;2.10;;
56269;SDS011;42176;43.240;27.880;2023-05-10T12:31:06;2.53;;;2.10;;
56269;SDS011;42176;43.240;27.880;2023-05-10T12:33:39;2.83;;;2.33;;
56269;SDS011;42176;43.240;27.880;2023-05-10T12:36:10;14.40;;;2.58;;
56269;SDS011;42176;43.240;27.880;2023-05-10T12:38:38;6.40;;;2.50;;
56269;SDS011;42176;43.240;27.880;2023-05-10T12:43:31;7.72;;;3.38;;
56269;SDS011;42176;43.240;27.880;2023-05-10T12:45:58;2.20;;;2.00;;
56269;SDS011;42176;43.240;27.880;2023-05-10T12:48:29;2.70;;;2.25;;
56269;SDS011;42176;43.240;27.880;2023-05-10T12:50:56;3.00;;;1.75;;
56269;SDS011;42176;43.240;27.880;2023-05-10T12:53:21;4.30;;;2.90;;
56269;SDS011;42176;43.240;27.880;2023-05-10T12:55:46;10.40;;;2.00;;
56269;SDS011;42176;43.240;27.880;2023-05-10T12:58:12;2.88;;;1.60;;
56269;SDS011;42176;43.240;27.880;2023-05-10T13:00:37;3.47;;;1.80;;
56269;SDS011;42176;43.240;27.880;2023-05-10T13:03:03;2.67;;;1.88;;
56269;SDS011;42176;43.240;27.880;2023-05-10T13:05:31;2.78;;;1.60;;
56269;SDS011;42176;43.240;27.880;2023-05-10T13:07:57;4.68;;;2.22;;
56269;SDS011;42176;43.240;27.880;2023-05-10T13:10:23;6.97;;;2.15;;
56269;SDS011;42176;43.240;27.880;2023-05-10T13:12:49;10.45;;;2.45;;
56269;SDS011;42176;43.240;27.880;2023-05-10T13:15:15;5.50;;;2.60;;
56269;SDS011;42176;43.240;27.880;2023-05-10T13:17:40;2.20;;;1.55;;
56269;SDS011;42176;43.240;27.880;2023-05-10T13:20:07;2.30;;;2.05;;
56269;SDS011;42176;43.240;27.880;2023-05-10T13:22:34;3.78;;;1.63;;
56269;SDS011;42176;43.240;27.880;2023-05-10T13:25:00;7.05;;;2.47;;
56269;SDS011;42176;43.240;27.880;2023-05-10T13:27:26;2.03;;;1.40;;
56269;SDS011;42176;43.240;27.880;2023-05-10T13:29:51;2.45;;;1.40;;
56269;SDS011;42176;43.240;27.880;2023-05-10T13:32:16;2.80;;;2.00;;
56269;SDS011;42176;43.240;27.880;2023-05-10T13:34:42;6.05;;;2.08;;
56269;SDS011;42176;43.240;27.880;2023-05-10T13:37:07;6.13;;;2.00;;
56269;SDS011;42176;43.240;27.880;2023-05-10T13:39:33;2.55;;;1.70;;
56269;SDS011;42176;43.240;27.880;2023-05-10T13:41:59;3.08;;;1.98;;
56269;SDS011;42176;43.240;27.880;2023-05-10T13:44:25;8.20;;;2.47;;
56269;SDS011;42176;43.240;27.880;2023-05-10T13:46:50;4.82;;;1.60;;
56269;SDS011;42176;43.240;27.880;2023-05-10T13:49:16;2.70;;;2.15;;
56269;SDS011;42176;43.240;27.880;2023-05-10T13:51:42;1.83;;;1.67;;
56269;SDS011;42176;43.240;27.880;2023-05-10T13:54:08;6.22;;;1.35;;
56269;SDS011;42176;43.240;27.880;2023-05-10T13:56:39;3.58;;;2.20;;
56269;SDS011;42176;43.240;27.880;2023-05-10T13:59:05;2.75;;;1.67;;
56269;SDS011;42176;43.240;27.880;2023-05-10T14:01:32;3.58;;;1.40;;
56269;SDS011;42176;43.240;27.880;2023-05-10T14:03:58;2.22;;;1.42;;
56269;SDS011;42176;43.240;27.880;2023-05-10T14:06:24;5.47;;;2.08;;
56269;SDS011;42176;43.240;27.880;2023-05-10T14:08:49;3.17;;;2.00;;
56269;SDS011;42176;43.240;27.880;2023-05-10T14:11:15;6.18;;;1.80;;
56269;SDS011;42176;43.240;27.880;2023-05-10T14:13:40;4.07;;;1.83;;
56269;SDS011;42176;43.240;27.880;2023-05-10T14:16:06;7.43;;;2.42;;
56269;SDS011;42176;43.240;27.880;2023-05-10T14:18:31;5.47;;;1.83;;
56269;SDS011;42176;43.240;27.880;2023-05-10T14:20:57;3.40;;;1.65;;
56269;SDS011;42176;43.240;27.880;2023-05-10T14:23:22;5.60;;;1.88;;
56269;SDS011;42176;43.240;27.880;2023-05-10T14:25:53;3.88;;;1.50;;
56269;SDS011;42176;43.240;27.880;2023-05-10T14:28:19;1.73;;;1.48;;
56269;SDS011;42176;43.240;27.880;2023-05-10T14:30:48;1.88;;;1.25;;
56269;SDS011;42176;43.240;27.880;2023-05-10T14:33:14;3.88;;;2.08;;
56269;SDS011;42176;43.240;27.880;2023-05-10T14:35:39;5.47;;;2.72;;
56269;SDS011;42176;43.240;27.880;2023-05-10T14:38:05;2.33;;;1.58;;
56269;SDS011;42176;43.240;27.880;2023-05-10T14:40:31;1.73;;;1.58;;
56269;SDS011;42176;43.240;27.880;2023-05-10T14:42:56;3.67;;;2.22;;
56269;SDS011;42176;43.240;27.880;2023-05-10T14:45:22;4.32;;;1.48;;
56269;SDS011;42176;43.240;27.880;2023-05-10T14:47:48;6.50;;;2.42;;
56269;SDS011;42176;43.240;27.880;2023-05-10T14:50:14;4.60;;;1.98;;
56269;SDS011;42176;43.240;27.880;2023-05-10T14:55:58;2.20;;;1.73;;
56269;SDS011;42176;43.240;27.880;2023-05-10T14:58:25;2.05;;;1.60;;
56269;SDS011;42176;43.240;27.880;2023-05-10T15:00:50;4.90;;;1.98;;
56269;SDS011;42176;43.240;27.880;2023-05-10T15:03:16;2.90;;;2.08;;
56269;SDS011;42176;43.240;27.880;2023-05-10T15:05:41;5.63;;;2.33;;